sensor_id;sensor_type;location;lat;lon;timestamp;P1;durP1;ratioP1;P2;durP2;ratioP2
27722;SDS011;15123;-37.794;175.246;2022-09-09T00:05:27;4.13;;;1.00;;
27722;SDS011;15123;-37.794;175.246;2022-09-09T00:12:40;4.55;;;0.75;;
27722;SDS011;15123;-37.794;175.246;2022-09-09T00:23:30;3.33;;;0.90;;
27722;SDS011;15123;-37.794;175.246;2022-09-09T00:27:16;6.20;;;1.20;;
27722;SDS011;15123;-37.794;175.246;2022-09-09T00:30:44;4.10;;;0.98;;
27722;SDS011;15123;-37.794;175.246;2022-09-09T00:34:15;5.72;;;1.02;;
27722;SDS011;15123;-37.794;175.246;2022-09-09T00:37:46;3.42;;;0.73;;
27722;SDS011;15123;-37.794;175.246;2022-09-09T00:44:50;4.93;;;0.98;;
27722;SDS011;15123;-37.794;175.246;2022-09-09T00:48:16;3.65;;;0.82;;
27722;SDS011;15123;-37.794;175.246;2022-09-09T00:51:47;3.83;;;0.93;;
27722;SDS011;15123;-37.794;175.246;2022-09-09T00:55:28;4.07;;;1.05;;
27722;SDS011;15123;-37.794;175.246;2022-09-09T01:06:16;4.35;;;1.00;;
27722;SDS011;15123;-37.794;175.246;2022-09-09T01:09:58;3.20;;;0.70;;
27722;SDS011;15123;-37.794;175.246;2022-09-09T01:13:26;4.32;;;1.02;;
27722;SDS011;15123;-37.794;175.246;2022-09-09T01:16:54;2.88;;;0.80;;
27722;SDS011;15123;-37.794;175.246;2022-09-09T01:20:27;3.50;;;0.85;;
27722;SDS011;15123;-37.794;175.246;2022-09-09T01:28:17;4.80;;;1.00;;
27722;SDS011;15123;-37.794;175.246;2022-09-09T01:38:56;3.90;;;0.77;;
27722;SDS011;15123;-37.794;175.246;2022-09-09T01:42:28;4.95;;;0.93;;
27722;SDS011;15123;-37.794;175.246;2022-09-09T01:45:53;3.90;;;0.80;;
27722;SDS011;15123;-37.794;175.246;2022-09-09T01:49:19;4.90;;;0.90;;
27722;SDS011;15123;-37.794;175.246;2022-09-09T01:53:02;5.10;;;0.80;;
27722;SDS011;15123;-37.794;175.246;2022-09-09T01:56:50;7.63;;;1.02;;
27722;SDS011;15123;-37.794;175.246;2022-09-09T02:00:31;3.88;;;0.90;;
27722;SDS011;15123;-37.794;175.246;2022-09-09T02:08:33;3.97;;;0.80;;
27722;SDS011;15123;-37.794;175.246;2022-09-09T02:11:56;4.07;;;0.70;;
27722;SDS011;15123;-37.794;175.246;2022-09-09T02:19:39;3.55;;;0.70;;
27722;SDS011;15123;-37.794;175.246;2022-09-09T02:23:25;2.88;;;0.80;;
27722;SDS011;15123;-37.794;175.246;2022-09-09T02:26:46;4.32;;;0.80;;
27722;SDS011;15123;-37.794;175.246;2022-09-09T02:30:13;4.75;;;0.80;;
27722;SDS011;15123;-37.794;175.246;2022-09-09T02:33:40;6.25;;;1.10;;
27722;SDS011;15123;-37.794;175.246;2022-09-09T02:37:06;3.97;;;0.77;;
27722;SDS011;15123;-37.794;175.246;2022-09-09T02:40:32;4.13;;;0.75;;
27722;SDS011;15123;-37.794;175.246;2022-09-09T02:43:54;5.50;;;0.95;;
27722;SDS011;15123;-37.794;175.246;2022-09-09T02:51:18;4.57;;;1.10;;
27722;SDS011;15123;-37.794;175.246;2022-09-09T02:54:49;4.72;;;1.23;;
27722;SDS011;15123;-37.794;175.246;2022-09-09T02:58:19;4.82;;;1.10;;
27722;SDS011;15123;-37.794;175.246;2022-09-09T03:01:43;4.43;;;1.00;;
27722;SDS011;15123;-37.794;175.246;2022-09-09T03:05:08;5.28;;;0.82;;
27722;SDS011;15123;-37.794;175.246;2022-09-09T03:08:33;3.70;;;0.90;;
27722;SDS011;15123;-37.794;175.246;2022-09-09T03:11:59;3.50;;;0.90;;
27722;SDS011;15123;-37.794;175.246;2022-09-09T03:15:23;4.90;;;1.10;;
27722;SDS011;15123;-37.794;175.246;2022-09-09T03:18:50;3.95;;;0.90;;
27722;SDS011;15123;-37.794;175.246;2022-09-09T03:22:14;4.88;;;0.95;;
27722;SDS011;15123;-37.794;175.246;2022-09-09T03:25:34;3.40;;;0.85;;
27722;SDS011;15123;-37.794;175.246;2022-09-09T03:28:48;3.45;;;0.90;;
27722;SDS011;15123;-37.794;175.246;2022-09-09T03:32:13;4.20;;;0.90;;
27722;SDS011;15123;-37.794;175.246;2022-09-09T03:35:44;4.07;;;1.10;;
27722;SDS011;15123;-37.794;175.246;2022-09-09T03:39:09;4.82;;;0.95;;
27722;SDS011;15123;-37.794;175.246;2022-09-09T03:42:33;5.18;;;0.80;;
27722;SDS011;15123;-37.794;175.246;2022-09-09T03:46:00;4.03;;;1.00;;
27722;SDS011;15123;-37.794;175.246;2022-09-09T03:49:24;3.83;;;0.90;;
27722;SDS011;15123;-37.794;175.246;2022-09-09T03:52:48;4.45;;;1.20;;
27722;SDS011;15123;-37.794;175.246;2022-09-09T03:56:13;6.22;;;1.10;;
27722;SDS011;15123;-37.794;175.246;2022-09-09T03:59:37;4.85;;;1.05;;
27722;SDS011;15123;-37.794;175.246;2022-09-09T04:03:04;3.60;;;1.05;;
27722;SDS011;15123;-37.794;175.246;2022-09-09T04:06:35;4.82;;;1.30;;
27722;SDS011;15123;-37.794;175.246;2022-09-09T04:09:59;3.83;;;1.10;;
27722;SDS011;15123;-37.794;175.246;2022-09-09T04:13:25;3.47;;;1.13;;
27722;SDS011;15123;-37.794;175.246;2022-09-09T04:16:50;3.72;;;0.90;;
27722;SDS011;15123;-37.794;175.246;2022-09-09T04:20:16;4.70;;;1.15;;
27722;SDS011;15123;-37.794;175.246;2022-09-09T04:23:40;5.28;;;1.33;;
27722;SDS011;15123;-37.794;175.246;2022-09-09T04:27:06;5.55;;;1.20;;
27722;SDS011;15123;-37.794;175.246;2022-09-09T04:30:29;5.57;;;1.45;;
27722;SDS011;15123;-37.794;175.246;2022-09-09T04:33:56;3.45;;;0.80;;
27722;SDS011;15123;-37.794;175.246;2022-09-09T04:37:22;4.10;;;1.00;;
27722;SDS011;15123;-37.794;175.246;2022-09-09T04:40:46;3.55;;;1.17;;
27722;SDS011;15123;-37.794;175.246;2022-09-09T04:44:11;3.97;;;1.00;;
27722;SDS011;15123;-37.794;175.246;2022-09-09T04:47:36;3.30;;;0.88;;
27722;SDS011;15123;-37.794;175.246;2022-09-09T04:51:00;3.78;;;0.88;;
27722;SDS011;15123;-37.794;175.246;2022-09-09T04:54:27;7.18;;;2.08;;
27722;SDS011;15123;-37.794;175.246;2022-09-09T04:57:51;6.22;;;1.73;;
27722;SDS011;15123;-37.794;175.246;2022-09-09T05:01:17;6.05;;;1.40;;
27722;SDS011;15123;-37.794;175.246;2022-09-09T05:04:44;5.03;;;1.00;;
27722;SDS011;15123;-37.794;175.246;2022-09-09T05:08:10;4.05;;;1.00;;
27722;SDS011;15123;-37.794;175.246;2022-09-09T05:11:34;3.80;;;0.90;;
27722;SDS011;15123;-37.794;175.246;2022-09-09T05:15:03;3.75;;;1.00;;
27722;SDS011;15123;-37.794;175.246;2022-09-09T05:18:29;3.25;;;0.93;;
27722;SDS011;15123;-37.794;175.246;2022-09-09T05:21:53;3.28;;;0.85;;
27722;SDS011;15123;-37.794;175.246;2022-09-09T05:25:19;3.85;;;0.90;;
27722;SDS011;15123;-37.794;175.246;2022-09-09T05:28:42;4.22;;;0.85;;
27722;SDS011;15123;-37.794;175.246;2022-09-09T05:32:07;4.07;;;1.20;;
27722;SDS011;15123;-37.794;175.246;2022-09-09T05:35:34;3.67;;;1.20;;
27722;SDS011;15123;-37.794;175.246;2022-09-09T05:38:59;3.53;;;1.10;;
27722;SDS011;15123;-37.794;175.246;2022-09-09T05:42:23;4.20;;;1.08;;
27722;SDS011;15123;-37.794;175.246;2022-09-09T05:45:58;4.25;;;1.00;;
27722;SDS011;15123;-37.794;175.246;2022-09-09T05:49:27;3.35;;;1.00;;
27722;SDS011;15123;-37.794;175.246;2022-09-09T05:52:51;5.43;;;1.20;;
27722;SDS011;15123;-37.794;175.246;2022-09-09T05:56:20;4.10;;;1.20;;
27722;SDS011;15123;-37.794;175.246;2022-09-09T05:59:45;3.72;;;1.10;;
27722;SDS011;15123;-37.794;175.246;2022-09-09T06:03:14;5.70;;;1.10;;
27722;SDS011;15123;-37.794;175.246;2022-09-09T06:06:41;5.28;;;1.27;;
27722;SDS011;15123;-37.794;175.246;2022-09-09T06:10:05;4.60;;;1.70;;
27722;SDS011;15123;-37.794;175.246;2022-09-09T06:13:30;4.97;;;1.85;;
27722;SDS011;15123;-37.794;175.246;2022-09-09T06:16:56;6.63;;;1.65;;
27722;SDS011;15123;-37.794;175.246;2022-09-09T06:20:22;4.63;;;1.60;;
27722;SDS011;15123;-37.794;175.246;2022-09-09T06:23:48;6.88;;;2.00;;
27722;SDS011;15123;-37.794;175.246;2022-09-09T06:27:09;4.32;;;1.60;;
27722;SDS011;15123;-37.794;175.246;2022-09-09T06:30:28;4.72;;;1.40;;
27722;SDS011;15123;-37.794;175.246;2022-09-09T06:33:53;3.90;;;1.40;;
27722;SDS011;15123;-37.794;175.246;2022-09-09T06:37:22;5.15;;;1.35;;
27722;SDS011;15123;-37.794;175.246;2022-09-09T06:40:52;4.30;;;1.40;;
27722;SDS011;15123;-37.794;175.246;2022-09-09T06:44:19;4.00;;;1.30;;
27722;SDS011;15123;-37.794;175.246;2022-09-09T06:47:47;5.30;;;1.75;;
27722;SDS011;15123;-37.794;175.246;2022-09-09T06:51:16;4.55;;;1.40;;
27722;SDS011;15123;-37.794;175.246;2022-09-09T06:54:43;4.28;;;1.50;;
27722;SDS011;15123;-37.794;175.246;2022-09-09T06:58:08;5.10;;;1.60;;
27722;SDS011;15123;-37.794;175.246;2022-09-09T07:01:37;4.78;;;1.60;;
27722;SDS011;15123;-37.794;175.246;2022-09-09T07:05:04;5.18;;;1.67;;
27722;SDS011;15123;-37.794;175.246;2022-09-09T07:08:28;4.30;;;1.40;;
27722;SDS011;15123;-37.794;175.246;2022-09-09T07:12:03;4.63;;;1.35;;
27722;SDS011;15123;-37.794;175.246;2022-09-09T07:15:33;4.78;;;1.50;;
27722;SDS011;15123;-37.794;175.246;2022-09-09T07:18:57;4.90;;;1.60;;
27722;SDS011;15123;-37.794;175.246;2022-09-09T07:22:25;4.63;;;1.45;;
27722;SDS011;15123;-37.794;175.246;2022-09-09T07:25:51;5.75;;;1.48;;
27722;SDS011;15123;-37.794;175.246;2022-09-09T07:29:10;4.18;;;1.40;;
27722;SDS011;15123;-37.794;175.246;2022-09-09T07:32:31;4.72;;;1.50;;
27722;SDS011;15123;-37.794;175.246;2022-09-09T07:36:02;4.40;;;1.42;;
27722;SDS011;15123;-37.794;175.246;2022-09-09T07:39:42;7.45;;;2.28;;
27722;SDS011;15123;-37.794;175.246;2022-09-09T07:43:08;12.65;;;4.03;;
27722;SDS011;15123;-37.794;175.246;2022-09-09T07:46:36;5.65;;;2.58;;
27722;SDS011;15123;-37.794;175.246;2022-09-09T07:50:08;5.53;;;2.40;;
27722;SDS011;15123;-37.794;175.246;2022-09-09T07:53:33;5.18;;;2.00;;
27722;SDS011;15123;-37.794;175.246;2022-09-09T07:56:57;5.50;;;2.00;;
27722;SDS011;15123;-37.794;175.246;2022-09-09T08:00:22;5.90;;;2.30;;
27722;SDS011;15123;-37.794;175.246;2022-09-09T08:03:46;5.45;;;2.28;;
27722;SDS011;15123;-37.794;175.246;2022-09-09T08:07:17;7.05;;;2.70;;
27722;SDS011;15123;-37.794;175.246;2022-09-09T08:10:41;9.90;;;3.85;;
27722;SDS011;15123;-37.794;175.246;2022-09-09T08:14:06;16.75;;;6.03;;
27722;SDS011;15123;-37.794;175.246;2022-09-09T08:17:32;13.88;;;4.93;;
27722;SDS011;15123;-37.794;175.246;2022-09-09T08:20:57;9.05;;;3.47;;
27722;SDS011;15123;-37.794;175.246;2022-09-09T08:24:15;5.82;;;2.97;;
27722;SDS011;15123;-37.794;175.246;2022-09-09T08:27:39;6.65;;;2.70;;
27722;SDS011;15123;-37.794;175.246;2022-09-09T08:31:13;11.00;;;4.78;;
27722;SDS011;15123;-37.794;175.246;2022-09-09T08:34:40;8.20;;;3.70;;
27722;SDS011;15123;-37.794;175.246;2022-09-09T08:38:08;9.88;;;3.50;;
27722;SDS011;15123;-37.794;175.246;2022-09-09T08:45:26;10.32;;;4.10;;
27722;SDS011;15123;-37.794;175.246;2022-09-09T08:48:59;10.68;;;3.88;;
27722;SDS011;15123;-37.794;175.246;2022-09-09T08:52:29;8.18;;;3.40;;
27722;SDS011;15123;-37.794;175.246;2022-09-09T08:59:28;8.63;;;3.47;;
27722;SDS011;15123;-37.794;175.246;2022-09-09T09:02:56;13.20;;;5.00;;
27722;SDS011;15123;-37.794;175.246;2022-09-09T09:10:25;7.20;;;3.00;;
27722;SDS011;15123;-37.794;175.246;2022-09-09T09:13:59;6.57;;;2.80;;
27722;SDS011;15123;-37.794;175.246;2022-09-09T09:17:36;5.25;;;2.22;;
27722;SDS011;15123;-37.794;175.246;2022-09-09T09:21:16;6.70;;;2.80;;
27722;SDS011;15123;-37.794;175.246;2022-09-09T09:28:35;34.85;;;24.00;;
27722;SDS011;15123;-37.794;175.246;2022-09-09T09:31:55;14.45;;;8.75;;
27722;SDS011;15123;-37.794;175.246;2022-09-09T09:35:15;12.10;;;6.53;;
27722;SDS011;15123;-37.794;175.246;2022-09-09T09:38:56;17.33;;;9.15;;
27722;SDS011;15123;-37.794;175.246;2022-09-09T09:42:48;11.85;;;4.75;;
27722;SDS011;15123;-37.794;175.246;2022-09-09T09:46:21;10.88;;;4.60;;
27722;SDS011;15123;-37.794;175.246;2022-09-09T09:49:57;6.10;;;2.70;;
27722;SDS011;15123;-37.794;175.246;2022-09-09T09:53:26;6.90;;;2.40;;
27722;SDS011;15123;-37.794;175.246;2022-09-09T09:56:52;5.70;;;2.15;;
27722;SDS011;15123;-37.794;175.246;2022-09-09T10:00:19;7.13;;;2.40;;
27722;SDS011;15123;-37.794;175.246;2022-09-09T10:03:49;6.32;;;1.98;;
27722;SDS011;15123;-37.794;175.246;2022-09-09T10:07:21;6.68;;;2.72;;
27722;SDS011;15123;-37.794;175.246;2022-09-09T10:11:01;5.10;;;2.20;;
27722;SDS011;15123;-37.794;175.246;2022-09-09T10:22:28;5.20;;;2.33;;
27722;SDS011;15123;-37.794;175.246;2022-09-09T10:30:10;6.75;;;3.10;;
27722;SDS011;15123;-37.794;175.246;2022-09-09T10:48:15;6.15;;;2.63;;
27722;SDS011;15123;-37.794;175.246;2022-09-09T10:55:42;6.45;;;2.75;;
27722;SDS011;15123;-37.794;175.246;2022-09-09T10:59:09;8.90;;;3.30;;
27722;SDS011;15123;-37.794;175.246;2022-09-09T11:02:39;6.10;;;3.17;;
27722;SDS011;15123;-37.794;175.246;2022-09-09T11:06:06;6.10;;;3.00;;
27722;SDS011;15123;-37.794;175.246;2022-09-09T11:09:38;6.05;;;3.20;;
27722;SDS011;15123;-37.794;175.246;2022-09-09T11:13:05;6.93;;;3.13;;
27722;SDS011;15123;-37.794;175.246;2022-09-09T11:16:58;8.13;;;3.75;;
27722;SDS011;15123;-37.794;175.246;2022-09-09T11:20:24;8.70;;;3.40;;
27722;SDS011;15123;-37.794;175.246;2022-09-09T11:24:02;7.85;;;3.05;;
27722;SDS011;15123;-37.794;175.246;2022-09-09T11:31:19;5.75;;;2.25;;
27722;SDS011;15123;-37.794;175.246;2022-09-09T11:38:25;4.80;;;2.00;;
27722;SDS011;15123;-37.794;175.246;2022-09-09T11:41:52;4.38;;;1.67;;
27722;SDS011;15123;-37.794;175.246;2022-09-09T11:45:24;4.30;;;1.80;;
27722;SDS011;15123;-37.794;175.246;2022-09-09T11:49:00;5.55;;;1.80;;
27722;SDS011;15123;-37.794;175.246;2022-09-09T11:52:35;4.88;;;1.77;;
27722;SDS011;15123;-37.794;175.246;2022-09-09T11:56:05;4.80;;;1.73;;
27722;SDS011;15123;-37.794;175.246;2022-09-09T11:59:32;4.47;;;1.52;;
27722;SDS011;15123;-37.794;175.246;2022-09-09T12:02:56;5.90;;;1.60;;
27722;SDS011;15123;-37.794;175.246;2022-09-09T12:10:01;3.85;;;1.40;;
27722;SDS011;15123;-37.794;175.246;2022-09-09T12:13:51;5.18;;;1.70;;
27722;SDS011;15123;-37.794;175.246;2022-09-09T12:21:06;4.40;;;1.55;;
27722;SDS011;15123;-37.794;175.246;2022-09-09T12:28:39;4.60;;;1.30;;
27722;SDS011;15123;-37.794;175.246;2022-09-09T12:32:19;4.20;;;1.30;;
27722;SDS011;15123;-37.794;175.246;2022-09-09T12:35:40;5.15;;;1.40;;
27722;SDS011;15123;-37.794;175.246;2022-09-09T12:39:09;4.95;;;1.40;;
27722;SDS011;15123;-37.794;175.246;2022-09-09T12:42:42;5.47;;;1.63;;
27722;SDS011;15123;-37.794;175.246;2022-09-09T12:46:10;4.35;;;1.27;;
27722;SDS011;15123;-37.794;175.246;2022-09-09T12:49:45;3.30;;;1.00;;
27722;SDS011;15123;-37.794;175.246;2022-09-09T12:53:33;3.45;;;0.90;;
27722;SDS011;15123;-37.794;175.246;2022-09-09T12:56:58;3.65;;;0.70;;
27722;SDS011;15123;-37.794;175.246;2022-09-09T13:00:23;4.00;;;0.85;;
27722;SDS011;15123;-37.794;175.246;2022-09-09T13:03:46;4.03;;;0.90;;
27722;SDS011;15123;-37.794;175.246;2022-09-09T13:07:10;4.75;;;0.80;;
27722;SDS011;15123;-37.794;175.246;2022-09-09T13:10:39;2.80;;;0.80;;
27722;SDS011;15123;-37.794;175.246;2022-09-09T13:14:17;3.25;;;0.90;;
27722;SDS011;15123;-37.794;175.246;2022-09-09T13:17:59;3.10;;;0.90;;
27722;SDS011;15123;-37.794;175.246;2022-09-09T13:21:32;2.75;;;0.70;;
27722;SDS011;15123;-37.794;175.246;2022-09-09T13:25:06;3.60;;;0.70;;
27722;SDS011;15123;-37.794;175.246;2022-09-09T13:28:30;2.67;;;0.70;;
27722;SDS011;15123;-37.794;175.246;2022-09-09T13:31:54;4.30;;;0.80;;
27722;SDS011;15123;-37.794;175.246;2022-09-09T13:35:28;2.17;;;0.60;;
27722;SDS011;15123;-37.794;175.246;2022-09-09T13:42:26;2.83;;;0.60;;
27722;SDS011;15123;-37.794;175.246;2022-09-09T13:45:55;2.45;;;0.50;;
27722;SDS011;15123;-37.794;175.246;2022-09-09T13:49:22;3.97;;;0.70;;
27722;SDS011;15123;-37.794;175.246;2022-09-09T13:52:46;2.45;;;0.60;;
27722;SDS011;15123;-37.794;175.246;2022-09-09T13:56:12;3.17;;;0.68;;
27722;SDS011;15123;-37.794;175.246;2022-09-09T13:59:36;3.10;;;0.70;;
27722;SDS011;15123;-37.794;175.246;2022-09-09T14:03:14;4.10;;;0.90;;
27722;SDS011;15123;-37.794;175.246;2022-09-09T14:06:38;3.85;;;1.00;;
27722;SDS011;15123;-37.794;175.246;2022-09-09T14:10:02;3.58;;;1.10;;
27722;SDS011;15123;-37.794;175.246;2022-09-09T14:13:26;3.47;;;1.20;;
27722;SDS011;15123;-37.794;175.246;2022-09-09T14:16:50;3.70;;;1.10;;
27722;SDS011;15123;-37.794;175.246;2022-09-09T14:20:15;3.97;;;1.10;;
27722;SDS011;15123;-37.794;175.246;2022-09-09T14:23:39;3.47;;;1.15;;
27722;SDS011;15123;-37.794;175.246;2022-09-09T14:27:04;3.20;;;1.00;;
27722;SDS011;15123;-37.794;175.246;2022-09-09T14:30:29;5.13;;;1.10;;
27722;SDS011;15123;-37.794;175.246;2022-09-09T14:33:53;3.08;;;1.08;;
27722;SDS011;15123;-37.794;175.246;2022-09-09T14:37:17;3.67;;;0.90;;
27722;SDS011;15123;-37.794;175.246;2022-09-09T14:40:44;3.90;;;0.88;;
27722;SDS011;15123;-37.794;175.246;2022-09-09T14:44:08;3.00;;;1.00;;
27722;SDS011;15123;-37.794;175.246;2022-09-09T14:47:32;3.90;;;1.00;;
27722;SDS011;15123;-37.794;175.246;2022-09-09T14:50:57;3.70;;;1.02;;
27722;SDS011;15123;-37.794;175.246;2022-09-09T14:54:20;2.75;;;0.82;;
27722;SDS011;15123;-37.794;175.246;2022-09-09T14:57:45;4.43;;;1.27;;
27722;SDS011;15123;-37.794;175.246;2022-09-09T15:01:13;5.05;;;0.88;;
27722;SDS011;15123;-37.794;175.246;2022-09-09T15:04:38;3.10;;;0.85;;
27722;SDS011;15123;-37.794;175.246;2022-09-09T15:08:03;3.92;;;0.90;;
27722;SDS011;15123;-37.794;175.246;2022-09-09T15:11:27;3.20;;;0.60;;
27722;SDS011;15123;-37.794;175.246;2022-09-09T15:14:54;2.75;;;0.50;;
27722;SDS011;15123;-37.794;175.246;2022-09-09T15:18:18;1.40;;;0.40;;
27722;SDS011;15123;-37.794;175.246;2022-09-09T15:21:43;1.73;;;0.50;;
27722;SDS011;15123;-37.794;175.246;2022-09-09T15:25:08;1.67;;;0.47;;
27722;SDS011;15123;-37.794;175.246;2022-09-09T15:28:33;2.05;;;0.30;;
27722;SDS011;15123;-37.794;175.246;2022-09-09T15:31:59;0.75;;;0.30;;
27722;SDS011;15123;-37.794;175.246;2022-09-09T15:35:23;1.02;;;0.20;;
27722;SDS011;15123;-37.794;175.246;2022-09-09T15:38:47;1.58;;;0.35;;
27722;SDS011;15123;-37.794;175.246;2022-09-09T15:42:11;1.10;;;0.30;;
27722;SDS011;15123;-37.794;175.246;2022-09-09T15:45:35;0.73;;;0.28;;
27722;SDS011;15123;-37.794;175.246;2022-09-09T15:49:09;1.63;;;0.30;;
27722;SDS011;15123;-37.794;175.246;2022-09-09T15:52:39;1.50;;;0.47;;
27722;SDS011;15123;-37.794;175.246;2022-09-09T15:56:03;1.38;;;0.30;;
27722;SDS011;15123;-37.794;175.246;2022-09-09T15:59:26;1.77;;;0.40;;
27722;SDS011;15123;-37.794;175.246;2022-09-09T16:02:52;0.90;;;0.30;;
27722;SDS011;15123;-37.794;175.246;2022-09-09T16:06:17;0.63;;;0.30;;
27722;SDS011;15123;-37.794;175.246;2022-09-09T16:09:45;1.02;;;0.30;;
27722;SDS011;15123;-37.794;175.246;2022-09-09T16:13:09;0.98;;;0.30;;
27722;SDS011;15123;-37.794;175.246;2022-09-09T16:16:33;0.68;;;0.20;;
27722;SDS011;15123;-37.794;175.246;2022-09-09T16:19:57;0.50;;;0.28;;
27722;SDS011;15123;-37.794;175.246;2022-09-09T16:23:25;1.63;;;0.40;;
27722;SDS011;15123;-37.794;175.246;2022-09-09T16:26:51;0.93;;;0.30;;
27722;SDS011;15123;-37.794;175.246;2022-09-09T16:30:16;0.93;;;0.30;;
27722;SDS011;15123;-37.794;175.246;2022-09-09T16:33:40;1.08;;;0.35;;
27722;SDS011;15123;-37.794;175.246;2022-09-09T16:37:03;1.25;;;0.30;;
27722;SDS011;15123;-37.794;175.246;2022-09-09T16:40:27;2.05;;;0.38;;
27722;SDS011;15123;-37.794;175.246;2022-09-09T16:43:59;1.80;;;0.60;;
27722;SDS011;15123;-37.794;175.246;2022-09-09T16:47:27;2.20;;;0.50;;
27722;SDS011;15123;-37.794;175.246;2022-09-09T16:50:51;1.98;;;0.40;;
27722;SDS011;15123;-37.794;175.246;2022-09-09T16:54:15;0.85;;;0.20;;
27722;SDS011;15123;-37.794;175.246;2022-09-09T16:57:41;2.63;;;0.50;;
27722;SDS011;15123;-37.794;175.246;2022-09-09T17:01:05;2.33;;;0.40;;
27722;SDS011;15123;-37.794;175.246;2022-09-09T17:04:29;0.98;;;0.30;;
27722;SDS011;15123;-37.794;175.246;2022-09-09T17:07:53;1.42;;;0.20;;
27722;SDS011;15123;-37.794;175.246;2022-09-09T17:11:17;0.93;;;0.20;;
27722;SDS011;15123;-37.794;175.246;2022-09-09T17:14:42;0.98;;;0.20;;
27722;SDS011;15123;-37.794;175.246;2022-09-09T17:18:07;0.52;;;0.20;;
27722;SDS011;15123;-37.794;175.246;2022-09-09T17:21:33;1.10;;;0.20;;
27722;SDS011;15123;-37.794;175.246;2022-09-09T17:25:17;0.25;;;0.17;;
27722;SDS011;15123;-37.794;175.246;2022-09-09T17:28:42;0.65;;;0.20;;
27722;SDS011;15123;-37.794;175.246;2022-09-09T17:32:09;0.68;;;0.30;;
27722;SDS011;15123;-37.794;175.246;2022-09-09T17:35:34;0.95;;;0.30;;
27722;SDS011;15123;-37.794;175.246;2022-09-09T17:38:58;1.02;;;0.40;;
27722;SDS011;15123;-37.794;175.246;2022-09-09T17:42:22;1.10;;;0.30;;
27722;SDS011;15123;-37.794;175.246;2022-09-09T17:45:47;1.80;;;0.30;;
27722;SDS011;15123;-37.794;175.246;2022-09-09T17:49:15;1.80;;;0.30;;
27722;SDS011;15123;-37.794;175.246;2022-09-09T17:52:39;3.55;;;0.60;;
27722;SDS011;15123;-37.794;175.246;2022-09-09T17:56:03;4.30;;;0.90;;
27722;SDS011;15123;-37.794;175.246;2022-09-09T17:59:28;3.05;;;0.60;;
27722;SDS011;15123;-37.794;175.246;2022-09-09T18:02:53;2.13;;;0.50;;
27722;SDS011;15123;-37.794;175.246;2022-09-09T18:06:22;1.55;;;0.40;;
27722;SDS011;15123;-37.794;175.246;2022-09-09T18:09:43;2.55;;;0.90;;
27722;SDS011;15123;-37.794;175.246;2022-09-09T18:13:07;3.20;;;0.70;;
27722;SDS011;15123;-37.794;175.246;2022-09-09T18:16:31;2.08;;;0.50;;
27722;SDS011;15123;-37.794;175.246;2022-09-09T18:19:56;2.80;;;0.60;;
27722;SDS011;15123;-37.794;175.246;2022-09-09T18:23:19;3.20;;;0.70;;
27722;SDS011;15123;-37.794;175.246;2022-09-09T18:26:44;3.88;;;0.70;;
27722;SDS011;15123;-37.794;175.246;2022-09-09T18:30:08;3.13;;;0.75;;
27722;SDS011;15123;-37.794;175.246;2022-09-09T18:33:33;2.47;;;0.57;;
27722;SDS011;15123;-37.794;175.246;2022-09-09T18:36:59;5.65;;;0.80;;
27722;SDS011;15123;-37.794;175.246;2022-09-09T18:40:25;3.13;;;0.68;;
27722;SDS011;15123;-37.794;175.246;2022-09-09T18:43:50;4.00;;;0.88;;
27722;SDS011;15123;-37.794;175.246;2022-09-09T18:47:15;4.65;;;1.00;;
27722;SDS011;15123;-37.794;175.246;2022-09-09T18:50:40;3.22;;;0.80;;
27722;SDS011;15123;-37.794;175.246;2022-09-09T18:54:05;4.18;;;0.80;;
27722;SDS011;15123;-37.794;175.246;2022-09-09T18:57:31;4.05;;;0.88;;
27722;SDS011;15123;-37.794;175.246;2022-09-09T19:00:57;4.55;;;0.95;;
27722;SDS011;15123;-37.794;175.246;2022-09-09T19:04:22;7.22;;;1.80;;
27722;SDS011;15123;-37.794;175.246;2022-09-09T19:07:47;8.15;;;1.98;;
27722;SDS011;15123;-37.794;175.246;2022-09-09T19:11:12;5.95;;;1.20;;
27722;SDS011;15123;-37.794;175.246;2022-09-09T19:14:40;4.18;;;0.70;;
27722;SDS011;15123;-37.794;175.246;2022-09-09T19:18:05;3.83;;;0.73;;
27722;SDS011;15123;-37.794;175.246;2022-09-09T19:21:37;3.30;;;0.85;;
27722;SDS011;15123;-37.794;175.246;2022-09-09T19:25:02;3.70;;;1.08;;
27722;SDS011;15123;-37.794;175.246;2022-09-09T19:28:26;4.03;;;0.93;;
27722;SDS011;15123;-37.794;175.246;2022-09-09T19:31:51;4.63;;;0.88;;
27722;SDS011;15123;-37.794;175.246;2022-09-09T19:35:36;5.15;;;1.20;;
27722;SDS011;15123;-37.794;175.246;2022-09-09T19:39:09;6.75;;;1.52;;
27722;SDS011;15123;-37.794;175.246;2022-09-09T19:42:33;5.35;;;1.42;;
27722;SDS011;15123;-37.794;175.246;2022-09-09T19:45:57;3.72;;;1.00;;
27722;SDS011;15123;-37.794;175.246;2022-09-09T19:49:24;3.55;;;0.85;;
27722;SDS011;15123;-37.794;175.246;2022-09-09T19:52:54;3.15;;;0.75;;
27722;SDS011;15123;-37.794;175.246;2022-09-09T19:56:19;2.53;;;0.70;;
27722;SDS011;15123;-37.794;175.246;2022-09-09T19:59:44;1.95;;;0.40;;
27722;SDS011;15123;-37.794;175.246;2022-09-09T20:03:12;2.50;;;0.50;;
27722;SDS011;15123;-37.794;175.246;2022-09-09T20:06:37;2.55;;;0.50;;
27722;SDS011;15123;-37.794;175.246;2022-09-09T20:10:02;3.30;;;0.60;;
27722;SDS011;15123;-37.794;175.246;2022-09-09T20:13:25;2.95;;;0.57;;
27722;SDS011;15123;-37.794;175.246;2022-09-09T20:16:52;3.15;;;0.70;;
27722;SDS011;15123;-37.794;175.246;2022-09-09T20:20:15;2.92;;;0.60;;
27722;SDS011;15123;-37.794;175.246;2022-09-09T20:23:39;1.90;;;0.43;;
27722;SDS011;15123;-37.794;175.246;2022-09-09T20:27:03;2.85;;;0.60;;
27722;SDS011;15123;-37.794;175.246;2022-09-09T20:30:28;3.97;;;0.82;;
27722;SDS011;15123;-37.794;175.246;2022-09-09T20:33:46;3.08;;;0.60;;
27722;SDS011;15123;-37.794;175.246;2022-09-09T20:37:10;3.33;;;0.68;;
27722;SDS011;15123;-37.794;175.246;2022-09-09T20:40:36;4.38;;;0.90;;
27722;SDS011;15123;-37.794;175.246;2022-09-09T20:44:05;2.50;;;0.60;;
27722;SDS011;15123;-37.794;175.246;2022-09-09T20:47:31;4.80;;;0.70;;
27722;SDS011;15123;-37.794;175.246;2022-09-09T20:50:55;3.55;;;0.70;;
27722;SDS011;15123;-37.794;175.246;2022-09-09T20:54:23;2.35;;;0.52;;
27722;SDS011;15123;-37.794;175.246;2022-09-09T20:57:50;2.50;;;0.60;;
27722;SDS011;15123;-37.794;175.246;2022-09-09T21:01:16;3.85;;;1.10;;
27722;SDS011;15123;-37.794;175.246;2022-09-09T21:04:41;4.38;;;1.10;;
27722;SDS011;15123;-37.794;175.246;2022-09-09T21:08:05;3.28;;;0.80;;
27722;SDS011;15123;-37.794;175.246;2022-09-09T21:11:29;2.88;;;0.60;;
27722;SDS011;15123;-37.794;175.246;2022-09-09T21:14:54;2.53;;;0.65;;
27722;SDS011;15123;-37.794;175.246;2022-09-09T21:18:18;2.88;;;0.70;;
27722;SDS011;15123;-37.794;175.246;2022-09-09T21:21:44;3.78;;;0.80;;
27722;SDS011;15123;-37.794;175.246;2022-09-09T21:25:07;2.90;;;0.80;;
27722;SDS011;15123;-37.794;175.246;2022-09-09T21:28:32;2.55;;;0.50;;
27722;SDS011;15123;-37.794;175.246;2022-09-09T21:31:56;1.80;;;0.50;;
27722;SDS011;15123;-37.794;175.246;2022-09-09T21:35:21;1.98;;;0.50;;
27722;SDS011;15123;-37.794;175.246;2022-09-09T21:38:45;3.28;;;0.57;;
27722;SDS011;15123;-37.794;175.246;2022-09-09T21:42:09;2.97;;;0.60;;
27722;SDS011;15123;-37.794;175.246;2022-09-09T21:45:25;2.00;;;0.63;;
27722;SDS011;15123;-37.794;175.246;2022-09-09T21:48:49;2.45;;;0.60;;
27722;SDS011;15123;-37.794;175.246;2022-09-09T21:52:14;2.92;;;0.70;;